createdAt,value
2023-02-02T00:00:34.821Z,101846.95
2023-02-02T00:03:04.511Z,101839.54
2023-02-02T00:05:34.552Z,101844.84
2023-02-02T00:08:04.698Z,101856.14
2023-02-02T00:10:34.491Z,101855.78
2023-02-02T00:13:04.844Z,101854.76999999999
2023-02-02T00:15:34.760Z,101860.06
2023-02-02T00:18:05.082Z,101858.09000000001
2023-02-02T00:20:34.537Z,101853.88
2023-02-02T00:23:04.742Z,101858.46
2023-02-02T00:25:35.552Z,101855.31
2023-02-02T00:28:04.630Z,101860.65999999999
2023-02-02T00:30:34.604Z,101858.42
2023-02-02T00:33:04.553Z,101862.75
2023-02-02T00:35:34.546Z,101867.46
2023-02-02T00:38:05.183Z,101868.40999999999
2023-02-02T00:40:34.501Z,101875.59
2023-02-02T00:43:04.496Z,101870.47
2023-02-02T00:45:34.777Z,101874.82
2023-02-02T00:48:04.922Z,101874.05
2023-02-02T00:50:34.873Z,101874.33
2023-02-02T00:53:04.498Z,101874.1
2023-02-02T00:55:34.479Z,101872.64
2023-02-02T00:58:04.482Z,101876.51
2023-02-02T01:00:35.197Z,101883.29
2023-02-02T01:03:06.020Z,101880.76999999999
2023-02-02T01:05:34.496Z,101885.1
2023-02-02T01:08:05.179Z,101892.78
2023-02-02T01:10:35.685Z,101892.42
2023-02-02T01:13:04.511Z,101897.38
2023-02-02T01:15:36.613Z,101898.03
2023-02-02T01:18:04.551Z,101897.52
2023-02-02T01:20:34.564Z,101897.05
2023-02-02T01:25:37.613Z,101894.75
2023-02-02T01:28:05.385Z,101896.31000000001
2023-02-02T01:30:34.701Z,101896.31000000001
2023-02-02T01:33:04.550Z,101896.03
2023-02-02T01:35:34.522Z,101892.64
2023-02-02T01:38:04.683Z,101888.33
2023-02-02T01:40:34.887Z,101887.59
2023-02-02T01:43:21.179Z,101899.61
2023-02-02T01:45:34.720Z,101892.61
2023-02-02T01:48:04.686Z,101892.02
2023-02-02T01:53:07.089Z,101893.19
2023-02-02T01:55:37.821Z,101892.97
2023-02-02T01:58:09.923Z,101895.42
2023-02-02T02:00:35.881Z,101895.9
2023-02-02T02:03:07.997Z,101894.37000000001
2023-02-02T02:05:39.640Z,101899.75
2023-02-02T02:08:10.960Z,101901.36
2023-02-02T02:10:35.004Z,101896.92
2023-02-02T02:13:05.860Z,101894.67
2023-02-02T02:15:52.411Z,101899.44
2023-02-02T02:18:15.697Z,101893.95
2023-02-02T02:21:04.897Z,101895.98
2023-02-02T02:23:34.518Z,101892.86
2023-02-02T02:26:02.743Z,101891.94
2023-02-02T02:28:24.405Z,101892.31
2023-02-02T02:30:47.782Z,101889.25
2023-02-02T02:33:07.001Z,101890.04
2023-02-02T02:35:41.765Z,101896.65
2023-02-02T02:38:11.572Z,101898.85
2023-02-02T02:40:39.211Z,101901.81999999999
2023-02-02T02:43:13.764Z,101906.98
2023-02-02T02:45:37.199Z,101914.75
2023-02-02T02:48:04.600Z,101918.48
2023-02-02T02:50:34.594Z,101919.48
2023-02-02T02:53:07.900Z,101919.92
2023-02-02T02:55:45.399Z,101919.68000000001
2023-02-02T02:58:08.780Z,101922.85
2023-02-02T03:00:47.314Z,101925.03
2023-02-02T03:03:16.141Z,101920.9
2023-02-02T03:05:46.289Z,101919.06
2023-02-02T03:08:09.849Z,101920.53
2023-02-02T03:10:36.800Z,101914.48000000001
2023-02-02T03:13:07.802Z,101916.92
2023-02-02T03:15:35.183Z,101925.12000000001
2023-02-02T03:18:04.820Z,101926.71
2023-02-02T03:20:35.280Z,101922.75
2023-02-02T03:23:04.550Z,101917.89
2023-02-02T03:25:36.185Z,101922.55
2023-02-02T03:28:05.884Z,101926.64
2023-02-02T03:30:36.026Z,101922.26000000001
2023-02-02T03:33:05.564Z,101919.33
2023-02-02T03:35:34.590Z,101919.24
2023-02-02T03:38:04.683Z,101916.3
2023-02-02T03:40:35.004Z,101913.61
2023-02-02T03:43:05.083Z,101915.52
2023-02-02T03:45:36.350Z,101922.63
2023-02-02T03:48:05.378Z,101924.63
2023-02-02T03:53:04.940Z,101929.47
2023-02-02T03:55:34.561Z,101936.01
2023-02-02T03:58:04.556Z,101933.59
2023-02-02T04:00:34.657Z,101934.45
2023-02-02T04:03:04.652Z,101936.33
2023-02-02T04:05:35.057Z,101934.15
2023-02-02T04:08:04.656Z,101936.53
2023-02-02T04:10:34.563Z,101930.14
2023-02-02T04:13:04.891Z,101930.88
2023-02-02T04:15:34.596Z,101936.01999999999
2023-02-02T04:18:04.819Z,101939.59
2023-02-02T04:20:34.534Z,101944.59000000001
2023-02-02T04:23:04.566Z,101943.69
2023-02-02T04:25:34.793Z,101944.17
2023-02-02T04:28:04.547Z,101943.17
2023-02-02T04:30:34.751Z,101941.47
2023-02-02T04:33:04.601Z,101939.03
2023-02-02T04:38:05.215Z,101940.61
2023-02-02T04:40:37.297Z,101946.91
2023-02-02T04:43:05.081Z,101951.64
2023-02-02T04:45:34.671Z,101956.5
2023-02-02T04:50:34.824Z,101957.5
2023-02-02T04:53:05.003Z,101955.03
2023-02-02T04:55:38.677Z,101949.65999999999
2023-02-02T04:58:04.882Z,101948.11
2023-02-02T05:00:34.616Z,101952.66
2023-02-02T05:03:04.914Z,101952.33
2023-02-02T05:05:34.694Z,101957.33
2023-02-02T05:08:06.861Z,101962.81
2023-02-02T05:10:34.746Z,101966.54999999999
2023-02-02T05:13:04.751Z,101966.56
2023-02-02T05:15:34.960Z,101968.08
2023-02-02T05:18:04.685Z,101967.16
2023-02-02T05:20:34.796Z,101961.06
2023-02-02T05:23:04.723Z,101957.3
2023-02-02T05:25:34.662Z,101960.78
2023-02-02T05:28:04.621Z,101968.56
2023-02-02T05:30:34.664Z,101970.82
2023-02-02T05:33:04.604Z,101974.55
2023-02-02T05:35:34.583Z,101975.09
2023-02-02T05:38:04.792Z,101972.99
2023-02-02T05:40:34.617Z,101972.19
2023-02-02T05:43:04.684Z,101977.26
2023-02-02T05:45:34.751Z,101976.01
2023-02-02T05:48:05.174Z,101977.14
2023-02-02T05:50:34.839Z,101976.25
2023-02-02T05:53:04.805Z,101972.24
2023-02-02T05:55:34.599Z,101977.58
2023-02-02T05:58:04.635Z,101976.25
2023-02-02T06:00:34.914Z,101974.28
2023-02-02T06:03:05.072Z,101978.03
2023-02-02T06:05:34.601Z,101976.72
2023-02-02T06:10:35.003Z,101962.86
2023-02-02T06:13:04.659Z,101972.41
2023-02-02T06:18:05.960Z,101978.83
2023-02-02T06:20:35.316Z,101984.56999999999
2023-02-02T06:25:34.964Z,101990.94
2023-02-02T06:28:04.630Z,101992.74
2023-02-02T06:30:34.745Z,101992.66
2023-02-02T06:33:06.381Z,101990.69
2023-02-02T06:35:34.736Z,101993.59
2023-02-02T06:38:04.988Z,101994.75
2023-02-02T06:40:34.773Z,101998.95
2023-02-02T06:43:05.075Z,102003.2
2023-02-02T06:48:10.001Z,101997.72
2023-02-02T06:50:34.778Z,102000.83
2023-02-02T06:53:04.884Z,102003.12
2023-02-02T06:58:04.709Z,102006.7
2023-02-02T07:00:37.232Z,102008.83
2023-02-02T07:03:04.720Z,102010.35
2023-02-02T07:08:04.729Z,102013.62000000001
2023-02-02T07:13:06.084Z,102018.08
2023-02-02T07:23:04.820Z,102040.05
2023-02-02T07:30:35.009Z,102037.62000000001
2023-02-02T07:40:35.019Z,102039.69
2023-02-02T07:45:35.451Z,102053.92
2023-02-02T07:50:34.660Z,102060.89
2023-02-02T07:53:04.932Z,102063.48000000001
2023-02-02T07:55:34.603Z,102066.04
2023-02-02T07:58:06.828Z,102066.04999999999
2023-02-02T08:03:04.688Z,102071.45000000001
2023-02-02T08:08:04.835Z,102078.03
2023-02-02T08:13:04.918Z,102086.78
2023-02-02T08:18:04.768Z,102088.03
2023-02-02T08:20:34.840Z,102083.7
2023-02-02T08:23:04.713Z,102085.67
2023-02-02T08:25:35.048Z,102091.13
2023-02-02T08:28:05.109Z,102090.7
2023-02-02T08:30:34.860Z,102095.68000000001
2023-02-02T08:33:04.814Z,102092.38
2023-02-02T08:35:40.462Z,102102.84
2023-02-02T08:38:06.668Z,102110.29999999999
2023-02-02T08:40:35.127Z,102117.88
2023-02-02T08:43:05.001Z,102119.62
2023-02-02T08:46:12.727Z,102124.19
2023-02-02T08:48:11.589Z,102126.25
2023-02-02T08:50:35.073Z,102130.7
2023-02-02T08:53:04.818Z,102133.22
2023-02-02T08:55:34.759Z,102141.3
2023-02-02T08:58:04.954Z,102142.33
2023-02-02T09:00:34.939Z,102143.05
2023-02-02T09:03:04.857Z,102146.67
2023-02-02T09:05:35.411Z,102144.97
2023-02-02T09:08:05.171Z,102152.4
2023-02-02T09:10:35.603Z,102155.81
2023-02-02T09:13:04.638Z,102147.34
2023-02-02T09:15:34.972Z,102148.05
2023-02-02T09:18:05.036Z,102154.54999999999
2023-02-02T09:20:35.081Z,102151.4
2023-02-02T09:23:04.896Z,102152.81
2023-02-02T09:25:34.736Z,102156.11
2023-02-02T09:28:04.846Z,102156.5
2023-02-02T09:30:34.800Z,102158.77
2023-02-02T09:33:04.850Z,102165.23
2023-02-02T09:35:34.877Z,102165.68
2023-02-02T09:38:04.706Z,102167.44
2023-02-02T09:40:35.013Z,102168.16
2023-02-02T09:43:16.364Z,102170.34
2023-02-02T09:45:40.610Z,102175.87
2023-02-02T09:48:19.994Z,102180.38
2023-02-02T09:50:41.438Z,102185.38
2023-02-02T09:53:13.401Z,102182.5
2023-02-02T09:55:38.487Z,102177.23
2023-02-02T09:58:12.188Z,102176.92
2023-02-02T10:00:38.893Z,102187.25
2023-02-02T10:03:12.723Z,102182.17
2023-02-02T10:08:08.132Z,102200.3
2023-02-02T10:10:40.178Z,102195.14
2023-02-02T10:13:11.186Z,102207.14
2023-02-02T10:15:39.134Z,102205.69
2023-02-02T10:18:12.350Z,102208.11
2023-02-02T10:20:43.573Z,102209.39
2023-02-02T10:23:15.428Z,102211.0
2023-02-02T10:25:34.898Z,102219.12
2023-02-02T10:28:10.829Z,102213.95999999999
2023-02-02T10:30:44.382Z,102209.05
2023-02-02T10:33:09.103Z,102210.58
2023-02-02T10:35:40.402Z,102205.53
2023-02-02T10:38:11.846Z,102208.2
2023-02-02T10:40:45.484Z,102208.67
2023-02-02T10:43:30.944Z,102209.41
2023-02-02T10:45:36.911Z,102208.23000000001
2023-02-02T10:48:14.048Z,102213.06
2023-02-02T10:50:34.922Z,102209.7
2023-02-02T10:55:42.677Z,102211.14
2023-02-02T10:58:16.290Z,102214.54
2023-02-02T11:00:42.735Z,102212.41
2023-02-02T11:03:07.444Z,102218.46
2023-02-02T11:05:45.584Z,102224.34
2023-02-02T11:08:16.320Z,102219.16
2023-02-02T11:10:34.744Z,102219.86
2023-02-02T11:13:07.008Z,102218.45
2023-02-02T11:18:14.598Z,102215.83
2023-02-02T11:20:36.242Z,102214.98
2023-02-02T11:23:06.536Z,102218.66
2023-02-02T11:25:36.920Z,102218.73000000001
2023-02-02T11:28:12.743Z,102221.86
2023-02-02T11:30:37.626Z,102220.28
2023-02-02T11:33:24.483Z,102219.87000000001
2023-02-02T11:35:34.704Z,102221.02
2023-02-02T11:38:09.748Z,102221.72
2023-02-02T11:40:37.124Z,102221.61
2023-02-02T11:43:16.203Z,102222.97
2023-02-02T11:45:38.307Z,102218.38
2023-02-02T11:50:35.777Z,102213.59
2023-02-02T11:53:05.859Z,102209.31
2023-02-02T11:55:34.881Z,102208.06
2023-02-02T11:58:18.776Z,102202.22
2023-02-02T12:00:46.168Z,102202.31
2023-02-02T12:03:23.043Z,102202.01
2023-02-02T12:05:36.553Z,102201.84000000001
2023-02-02T12:08:05.942Z,102200.59
2023-02-02T12:10:44.092Z,102197.93
2023-02-02T12:13:08.769Z,102192.33
2023-02-02T12:15:46.907Z,102191.66
2023-02-02T12:18:22.020Z,102188.81
2023-02-02T12:20:42.382Z,102184.2
2023-02-02T12:23:17.775Z,102182.19
2023-02-02T12:25:48.422Z,102180.58
2023-02-02T12:28:18.222Z,102174.44
2023-02-02T12:30:42.304Z,102176.34000000001
2023-02-02T12:33:20.717Z,102179.14
2023-02-02T12:35:51.177Z,102172.78
2023-02-02T12:38:19.860Z,102171.81
2023-02-02T12:40:51.448Z,102175.75
2023-02-02T12:43:17.384Z,102173.97
2023-02-02T12:45:54.787Z,102173.18000000001
2023-02-02T12:48:21.732Z,102171.94
2023-02-02T12:50:48.333Z,102170.08
2023-02-02T12:53:23.072Z,102169.16
2023-02-02T12:55:42.768Z,102166.39
2023-02-02T12:58:11.404Z,102164.17
2023-02-02T13:00:52.734Z,102166.35
2023-02-02T13:03:20.074Z,102162.23
2023-02-02T13:05:48.675Z,102162.86
2023-02-02T13:08:07.914Z,102168.11
2023-02-02T13:10:37.819Z,102172.83
2023-02-02T13:13:11.385Z,102175.23999999999
2023-02-02T13:15:36.352Z,102171.39
2023-02-02T13:18:13.255Z,102169.68000000001
2023-02-02T13:20:40.325Z,102176.58
2023-02-02T13:23:10.320Z,102172.22
2023-02-02T13:25:40.693Z,102169.48
2023-02-02T13:28:14.933Z,102170.31
2023-02-02T13:33:11.752Z,102171.69
2023-02-02T13:35:41.901Z,102172.36
2023-02-02T13:38:15.807Z,102174.89
2023-02-02T13:40:37.387Z,102172.99
2023-02-02T13:43:17.334Z,102168.08
2023-02-02T13:45:45.435Z,102166.68
2023-02-02T13:48:17.879Z,102157.4
2023-02-02T13:50:51.169Z,102163.62000000001
2023-02-02T13:53:20.310Z,102163.72
2023-02-02T13:55:54.337Z,102166.39
2023-02-02T13:58:19.170Z,102168.7
2023-02-02T14:00:37.752Z,102162.14
2023-02-02T14:03:16.350Z,102155.48999999999
2023-02-02T14:05:37.980Z,102159.5
2023-02-02T14:08:14.369Z,102165.31
2023-02-02T14:10:37.691Z,102161.33
2023-02-02T14:13:23.692Z,102161.97
2023-02-02T14:15:38.001Z,102160.22
2023-02-02T14:18:05.305Z,102163.03
2023-02-02T14:20:41.695Z,102169.2
2023-02-02T14:23:24.538Z,102163.08
2023-02-02T14:25:47.782Z,102162.68
2023-02-02T14:28:10.477Z,102169.58
2023-02-02T14:30:37.649Z,102172.79999999999
2023-02-02T14:33:25.097Z,102169.4
2023-02-02T14:35:54.548Z,102173.24
2023-02-02T14:38:12.580Z,102169.17
2023-02-02T14:40:47.093Z,102169.37000000001
2023-02-02T14:43:26.923Z,102171.69
2023-02-02T14:45:35.457Z,102177.45
2023-02-02T14:48:10.557Z,102174.54000000001
2023-02-02T14:50:44.207Z,102174.48000000001
2023-02-02T14:53:14.386Z,102174.56
2023-02-02T14:55:37.589Z,102170.92
2023-02-02T14:58:06.322Z,102173.56999999999
2023-02-02T15:00:35.231Z,102176.56
2023-02-02T15:03:24.611Z,102181.48
2023-02-02T15:05:41.688Z,102185.42
2023-02-02T15:08:11.228Z,102191.95999999999
2023-02-02T15:10:55.719Z,102191.13
2023-02-02T15:13:09.944Z,102195.84
2023-02-02T15:15:36.417Z,102190.32999999999
2023-02-02T15:20:41.936Z,102197.58
2023-02-02T15:23:14.660Z,102190.03
2023-02-02T15:25:40.608Z,102202.58
2023-02-02T15:28:13.368Z,102206.64
2023-02-02T15:30:36.983Z,102208.59
2023-02-02T15:33:17.086Z,102212.61
2023-02-02T15:35:38.088Z,102212.91
2023-02-02T15:38:13.649Z,102216.47
2023-02-02T15:40:36.704Z,102217.22
2023-02-02T15:43:08.309Z,102219.64
2023-02-02T15:45:42.671Z,102221.70999999999
2023-02-02T15:48:09.216Z,102222.31
2023-02-02T15:50:35.561Z,102222.99
2023-02-02T15:53:05.196Z,102227.99
2023-02-02T15:55:35.207Z,102229.74
2023-02-02T16:00:37.332Z,102241.27
2023-02-02T16:03:09.895Z,102251.64
2023-02-02T16:05:46.743Z,102255.31
2023-02-02T16:08:08.448Z,102241.07
2023-02-02T16:10:35.009Z,102249.17
2023-02-02T16:13:05.325Z,102248.29999999999
2023-02-02T16:15:34.795Z,102247.69
2023-02-02T16:18:12.742Z,102247.70999999999
2023-02-02T16:20:37.272Z,102250.73
2023-02-02T16:23:13.084Z,102243.40999999999
2023-02-02T16:25:43.688Z,102244.06
2023-02-02T16:28:05.032Z,102243.73000000001
2023-02-02T16:30:37.735Z,102248.49
2023-02-02T16:33:24.659Z,102248.6
2023-02-02T16:38:14.574Z,102250.84000000001
2023-02-02T16:40:35.104Z,102249.64
2023-02-02T16:43:06.213Z,102246.32
2023-02-02T16:45:44.799Z,102241.53
2023-02-02T16:48:24.621Z,102240.19
2023-02-02T16:50:34.821Z,102240.38
2023-02-02T16:53:05.315Z,102242.61
2023-02-02T16:55:49.510Z,102242.14
2023-02-02T16:58:05.369Z,102246.95
2023-02-02T17:00:36.296Z,102247.70999999999
2023-02-02T17:03:08.797Z,102243.46
2023-02-02T17:05:47.399Z,102246.45000000001
2023-02-02T17:08:06.894Z,102253.88
2023-02-02T17:10:36.651Z,102252.61
2023-02-02T17:13:24.620Z,102251.33
2023-02-02T17:15:36.018Z,102254.39
2023-02-02T17:18:05.049Z,102253.81
2023-02-02T17:20:35.257Z,102248.86
2023-02-02T17:25:37.519Z,102252.53
2023-02-02T17:28:10.171Z,102248.81
2023-02-02T17:30:35.250Z,102247.42
2023-02-02T17:33:08.644Z,102243.12999999999
2023-02-02T17:35:51.407Z,102246.14
2023-02-02T17:38:04.983Z,102236.91
2023-02-02T17:40:35.053Z,102240.06000000001
2023-02-02T17:43:10.109Z,102235.08
2023-02-02T17:45:36.136Z,102242.26999999999
2023-02-02T17:48:05.546Z,102238.28
2023-02-02T17:55:38.063Z,102239.72
2023-02-02T17:58:05.467Z,102233.81000000001
2023-02-02T18:00:35.519Z,102225.98000000001
2023-02-02T18:03:11.222Z,102230.4
2023-02-02T18:05:36.403Z,102221.56
2023-02-02T18:08:05.504Z,102222.08
2023-02-02T18:10:37.192Z,102220.62
2023-02-02T18:13:06.000Z,102220.79
2023-02-02T18:15:34.906Z,102226.78
2023-02-02T18:18:05.162Z,102226.33
2023-02-02T18:20:35.531Z,102218.76999999999
2023-02-02T18:23:04.859Z,102223.51
2023-02-02T18:25:35.131Z,102218.06
2023-02-02T18:28:05.135Z,102217.61
2023-02-02T18:30:37.385Z,102217.83
2023-02-02T18:33:06.574Z,102213.95
2023-02-02T18:35:35.317Z,102214.51
2023-02-02T18:38:05.032Z,102212.27
2023-02-02T18:40:35.156Z,102212.28
2023-02-02T18:43:05.290Z,102200.69
2023-02-02T18:45:35.483Z,102195.98
2023-02-02T18:48:05.081Z,102195.12
2023-02-02T18:50:35.271Z,102189.58
2023-02-02T18:53:05.383Z,102189.76
2023-02-02T18:55:36.620Z,102192.98999999999
2023-02-02T18:58:09.284Z,102186.21
2023-02-02T19:00:35.180Z,102181.45
2023-02-02T19:03:04.872Z,102194.3
2023-02-02T19:05:45.005Z,102194.09000000001
2023-02-02T19:08:04.912Z,102197.0
2023-02-02T19:10:35.289Z,102197.52
2023-02-02T19:13:14.661Z,102192.11
2023-02-02T19:18:12.052Z,102182.92
2023-02-02T19:20:34.897Z,102182.26
2023-02-02T19:23:10.982Z,102180.94
2023-02-02T19:25:35.463Z,102186.3
2023-02-02T19:28:15.286Z,102188.9
2023-02-02T19:33:10.417Z,102203.66
2023-02-02T19:35:38.036Z,102202.31
2023-02-02T19:38:11.155Z,102206.34999999999
2023-02-02T19:40:35.468Z,102195.28
2023-02-02T19:43:19.295Z,102206.62
2023-02-02T19:45:35.323Z,102209.58
2023-02-02T19:48:13.649Z,102210.62
2023-02-02T19:50:38.054Z,102211.73999999999
2023-02-02T19:53:12.186Z,102208.06
2023-02-02T19:55:35.495Z,102205.25
2023-02-02T19:58:14.881Z,102204.97
2023-02-02T20:03:09.883Z,102207.65
2023-02-02T20:08:16.929Z,102208.33
2023-02-02T20:10:38.611Z,102205.17
2023-02-02T20:13:17.742Z,102203.58
2023-02-02T20:15:38.013Z,102227.79000000001
2023-02-02T20:23:19.450Z,102225.0
2023-02-02T20:25:36.529Z,102219.20999999999
2023-02-02T20:28:17.438Z,102212.03
2023-02-02T20:30:35.172Z,102210.40000000001
2023-02-02T20:33:18.720Z,102212.65
2023-02-02T20:35:39.146Z,102226.25
2023-02-02T20:38:18.256Z,102220.17
2023-02-02T20:40:35.131Z,102217.90999999999
2023-02-02T20:43:05.305Z,102221.04000000001
2023-02-02T20:45:34.931Z,102216.56
2023-02-02T20:48:05.628Z,102206.22
2023-02-02T20:53:05.639Z,102197.85
2023-02-02T20:55:35.896Z,102191.02
2023-02-02T20:58:05.214Z,102186.11
2023-02-02T21:00:35.162Z,102204.12
2023-02-02T21:03:04.955Z,102200.27
2023-02-02T21:05:36.085Z,102198.19
2023-02-02T21:08:06.029Z,102199.65999999999
2023-02-02T21:10:34.923Z,102202.47
2023-02-02T21:13:05.361Z,102200.25
2023-02-02T21:15:34.885Z,102206.12999999999
2023-02-02T21:18:05.082Z,102211.35
2023-02-02T21:23:05.177Z,102212.3
2023-02-02T21:25:35.384Z,102205.89
2023-02-02T21:28:05.767Z,102197.13
2023-02-02T21:30:35.319Z,102191.85
2023-02-02T21:35:35.118Z,102200.34000000001
2023-02-02T21:38:09.802Z,102194.87000000001
2023-02-02T21:40:34.962Z,102203.59
2023-02-02T21:43:13.581Z,102221.44
2023-02-02T21:45:36.524Z,102195.51
2023-02-02T21:48:15.995Z,102196.61
2023-02-02T21:50:39.398Z,102194.05
2023-02-02T21:53:16.780Z,102185.94
2023-02-02T21:55:37.222Z,102187.08
2023-02-02T21:58:14.338Z,102181.92
2023-02-02T22:00:35.149Z,102178.28
2023-02-02T22:03:22.010Z,102173.47
2023-02-02T22:05:36.253Z,102164.72
2023-02-02T22:08:19.939Z,102163.34000000001
2023-02-02T22:10:37.514Z,102140.87
2023-02-02T22:13:14.779Z,102134.89
2023-02-02T22:15:34.941Z,102123.99
2023-02-02T22:18:12.588Z,102115.66
2023-02-02T22:20:36.414Z,102106.83
2023-02-02T22:23:05.146Z,102109.45
2023-02-02T22:25:36.767Z,102095.01000000001
2023-02-02T22:28:16.024Z,102084.17
2023-02-02T22:30:38.226Z,102080.55
2023-02-02T22:33:07.110Z,102062.15999999999
2023-02-02T22:35:37.041Z,102066.3
2023-02-02T22:38:05.600Z,102072.94
2023-02-02T22:40:36.935Z,102071.62
2023-02-02T22:43:06.987Z,102083.48
2023-02-02T22:45:35.195Z,102091.31
2023-02-02T22:50:35.359Z,102091.62
2023-02-02T22:53:05.166Z,102098.11
2023-02-02T22:55:35.073Z,102099.58
2023-02-02T22:58:05.214Z,102115.0
2023-02-02T23:00:36.198Z,102086.0
2023-02-02T23:03:05.090Z,102090.47
2023-02-02T23:08:05.162Z,102096.19
2023-02-02T23:10:35.400Z,102087.18000000001
2023-02-02T23:13:05.783Z,102085.55
2023-02-02T23:15:35.116Z,102090.06000000001
2023-02-02T23:18:04.960Z,102087.18000000001
2023-02-02T23:20:34.970Z,102093.2
2023-02-02T23:23:05.078Z,102103.23
2023-02-02T23:25:34.938Z,102103.54
2023-02-02T23:28:05.486Z,102124.53
2023-02-02T23:30:35.341Z,102105.26
2023-02-02T23:33:04.937Z,102098.11
2023-02-02T23:40:35.211Z,102116.81999999999
2023-02-02T23:45:35.564Z,102126.64
2023-02-02T23:48:05.501Z,102129.58
2023-02-02T23:50:36.968Z,102135.69
2023-02-02T23:53:06.724Z,102133.81000000001
2023-02-02T23:55:35.760Z,102133.54000000001
2023-02-02T23:58:05.121Z,102138.16
